Time;durP1;ratioP1;P1;durP2;ratioP2;P2;SDS_P1;SDS_P2;PMS_P1;PMS_P2;Temp;Humidity;BMP_temperature;BMP_pressure;BME280_temperature;BME280_humidity;BME280_pressure;Samples;Min_cycle;Max_cycle;Signal;HPM_P1;HPM_P2
2022/09/11 00:00:12;;;;;;;14.30;9.52;;;13.90;99.90;;;;;;5104027;27;20051;-70
2022/09/11 00:02:37;;;;;;;12.93;8.35;;;13.90;99.90;;;;;;5114842;28;20511;-71
2022/09/11 00:05:03;;;;;;;13.65;9.85;;;13.80;99.90;;;;;;5112443;28;20047;-70
2022/09/11 00:07:29;;;;;;;15.02;11.38;;;13.70;99.90;;;;;;5114789;28;20533;-70
2022/09/11 00:09:55;;;;;;;15.00;11.70;;;13.80;99.90;;;;;;5096397;28;20048;-69
2022/09/11 00:12:21;;;;;;;17.95;12.35;;;13.70;99.90;;;;;;5112133;27;20032;-69
2022/09/11 00:14:46;;;;;;;16.70;12.32;;;13.70;99.90;;;;;;5097168;28;20039;-70
2022/09/11 00:17:14;;;;;;;17.20;12.18;;;13.80;99.90;;;;;;5094168;28;20047;-70
2022/09/11 00:19:41;;;;;;;19.88;14.73;;;13.70;99.90;;;;;;5109839;28;20032;-69
2022/09/11 00:22:08;;;;;;;19.42;14.73;;;13.70;99.90;;;;;;5110079;27;20036;-70
2022/09/11 00:24:33;;;;;;;20.80;16.15;;;13.70;99.90;;;;;;5094371;28;20404;-70
2022/09/11 00:26:59;;;;;;;21.25;15.40;;;13.80;99.90;;;;;;5094198;28;20119;-70
2022/09/11 00:29:25;;;;;;;19.63;15.15;;;13.80;99.90;;;;;;5094133;28;20093;-69
2022/09/11 00:31:51;;;;;;;19.88;15.25;;;13.80;99.90;;;;;;5095938;28;20046;-70
2022/09/11 00:34:16;;;;;;;18.88;14.75;;;13.90;99.90;;;;;;5113299;28;20036;-70
2022/09/11 00:36:43;;;;;;;12.77;9.50;;;13.90;99.90;;;;;;5114510;28;20046;-70
2022/09/11 00:39:11;;;;;;;11.00;7.75;;;13.90;99.90;;;;;;5114428;28;20408;-70
2022/09/11 00:41:40;;;;;;;11.45;8.13;;;14.00;99.90;;;;;;5111459;28;20522;-70
2022/09/11 00:44:17;;;;;;;10.93;8.05;;;13.90;99.90;;;;;;5113168;28;20157;-70
2022/09/11 00:46:52;;;;;;;11.82;8.38;;;13.90;99.90;;;;;;5098900;28;20460;-70
2022/09/11 00:49:22;;;;;;;10.00;6.75;;;14.00;99.90;;;;;;5113911;28;20480;-69
2022/09/11 00:51:53;;;;;;;11.98;8.05;;;14.00;99.90;;;;;;5104235;28;20036;-69
2022/09/11 00:54:24;;;;;;;11.23;7.30;;;13.90;99.90;;;;;;5093799;28;20043;-69
2022/09/11 00:56:51;;;;;;;13.95;10.13;;;13.80;99.90;;;;;;5099719;28;20071;-69
2022/09/11 00:59:20;;;;;;;14.43;10.15;;;13.80;99.90;;;;;;5112191;28;20044;-70
2022/09/11 01:01:46;;;;;;;14.65;10.40;;;13.70;99.90;;;;;;5095424;28;20065;-70
2022/09/11 01:04:12;;;;;;;13.85;9.98;;;13.80;99.90;;;;;;5093011;28;20078;-69
2022/09/11 01:06:39;;;;;;;9.48;6.15;;;13.70;99.90;;;;;;5093578;28;20036;-68
2022/09/11 01:09:04;;;;;;;7.43;4.47;;;13.80;99.90;;;;;;5092445;28;20035;-68
2022/09/11 01:11:50;;;;;;;8.15;4.95;;;13.70;99.90;;;;;;5094994;28;20118;-69
2022/09/11 01:14:33;;;;;;;9.75;6.05;;;13.70;99.90;;;;;;5111407;28;20112;-69
2022/09/11 01:17:14;;;;;;;10.85;6.50;;;13.70;99.90;;;;;;5113882;28;20031;-69
2022/09/11 01:20:16;;;;;;;12.25;8.93;;;13.70;99.90;;;;;;5107083;28;20496;-69
2022/09/11 01:23:01;;;;;;;14.50;10.75;;;13.60;99.90;;;;;;5090858;28;20040;-69
2022/09/11 01:25:38;;;;;;;15.35;12.13;;;13.60;99.90;;;;;;5093470;28;20051;-69
2022/09/11 01:28:12;;;;;;;15.75;11.80;;;13.60;99.90;;;;;;5093233;28;20043;-69
2022/09/11 01:30:46;;;;;;;14.05;10.13;;;13.70;99.90;;;;;;5093023;28;20079;-69
2022/09/11 01:33:15;;;;;;;12.75;8.93;;;13.70;99.90;;;;;;5111631;28;20078;-68
2022/09/11 01:36:05;;;;;;;13.80;8.50;;;13.70;99.90;;;;;;5111256;28;20031;-69
2022/09/11 01:38:54;;;;;;;11.77;9.15;;;13.70;99.90;;;;;;5093265;28;20079;-69
2022/09/11 01:41:40;;;;;;;11.25;8.75;;;13.80;99.90;;;;;;5095157;28;20040;-69
2022/09/11 01:44:12;;;;;;;11.57;8.77;;;13.80;99.90;;;;;;5093013;28;20483;-69
2022/09/11 01:46:43;;;;;;;11.63;8.93;;;13.80;99.90;;;;;;5109822;28;20031;-69
2022/09/11 01:49:20;;;;;;;11.85;9.63;;;13.70;99.90;;;;;;5113314;28;20043;-69
2022/09/11 01:51:51;;;;;;;12.05;8.90;;;13.70;99.90;;;;;;5113407;28;20050;-69
2022/09/11 01:54:21;;;;;;;12.35;9.77;;;13.80;99.90;;;;;;5111930;28;20040;-70
2022/09/11 01:56:59;;;;;;;10.70;8.23;;;13.80;99.90;;;;;;5113310;28;20514;-70
2022/09/11 01:59:36;;;;;;;9.65;7.25;;;13.80;99.90;;;;;;5111423;28;20406;-69
2022/09/11 02:02:06;;;;;;;8.18;5.68;;;13.70;99.90;;;;;;5111541;28;20127;-70
2022/09/11 02:04:39;;;;;;;9.73;5.72;;;13.60;99.90;;;;;;5092930;28;20083;-69
2022/09/11 02:07:22;;;;;;;7.85;5.13;;;13.60;99.90;;;;;;5074881;28;20127;-69
2022/09/11 02:10:00;;;;;;;7.50;5.53;;;13.60;99.90;;;;;;5102886;28;20047;-69
2022/09/11 02:12:33;;;;;;;10.23;7.65;;;13.50;99.90;;;;;;5109480;28;20036;-69
2022/09/11 02:14:59;;;;;;;11.57;7.75;;;13.50;99.90;;;;;;5096837;28;20046;-69
2022/09/11 02:17:39;;;;;;;11.85;8.50;;;13.40;99.90;;;;;;5112366;28;20480;-69
2022/09/11 02:20:07;;;;;;;13.00;8.95;;;13.50;99.90;;;;;;5107662;28;20039;-69
2022/09/11 02:22:32;;;;;;;11.38;7.47;;;13.40;99.90;;;;;;5115465;28;20039;-69
2022/09/11 02:24:58;;;;;;;11.43;7.97;;;13.40;99.90;;;;;;5115608;28;20381;-70
2022/09/11 02:27:26;;;;;;;11.43;7.40;;;13.40;99.90;;;;;;5148636;27;20040;-70
2022/09/11 02:29:54;;;;;;;10.18;6.63;;;13.40;99.90;;;;;;5116566;28;20557;-69
2022/09/11 02:32:21;;;;;;;9.05;6.50;;;13.30;99.90;;;;;;5112147;28;20039;-69
2022/09/11 02:34:49;;;;;;;10.00;7.18;;;13.30;99.90;;;;;;5096310;28;20036;-70
2022/09/11 02:37:20;;;;;;;8.55;6.05;;;13.40;99.90;;;;;;5096148;28;20032;-70
2022/09/11 02:39:54;;;;;;;9.73;6.85;;;13.40;99.90;;;;;;5104062;28;20042;-70
2022/09/11 02:42:53;;;;;;;10.48;6.72;;;13.40;99.90;;;;;;5114099;28;20088;-70
2022/09/11 02:45:34;;;;;;;10.25;6.90;;;13.40;99.90;;;;;;5115629;27;20050;-70
2022/09/11 02:48:18;;;;;;;11.47;8.03;;;13.40;99.90;;;;;;5116520;28;20557;-69
2022/09/11 02:50:57;;;;;;;12.25;7.68;;;13.40;99.90;;;;;;5096679;28;20040;-69
2022/09/11 02:54:05;;;;;;;11.50;8.63;;;13.40;99.90;;;;;;5094866;28;20036;-70
2022/09/11 02:56:39;;;;;;;13.70;10.50;;;13.40;99.90;;;;;;5095949;28;20090;-70
2022/09/11 02:59:34;;;;;;;14.85;10.70;;;13.40;99.90;;;;;;5095416;28;20039;-70
2022/09/11 03:02:00;;;;;;;15.93;12.40;;;13.30;99.90;;;;;;5095409;28;20527;-69
2022/09/11 03:04:28;;;;;;;13.30;8.82;;;13.30;99.90;;;;;;5095358;28;20051;-69
2022/09/11 03:06:55;;;;;;;11.55;7.88;;;13.20;99.90;;;;;;5095661;28;20044;-69
2022/09/11 03:09:21;;;;;;;12.63;9.80;;;13.20;99.90;;;;;;5100233;28;20036;-70
2022/09/11 03:11:46;;;;;;;12.68;9.82;;;13.10;99.90;;;;;;5113522;28;20031;-70
2022/09/11 03:14:13;;;;;;;13.73;10.90;;;13.10;99.90;;;;;;5114866;28;20372;-69
2022/09/11 03:16:39;;;;;;;15.43;11.63;;;13.20;99.90;;;;;;5097972;28;20503;-70
2022/09/11 03:19:06;;;;;;;14.68;10.85;;;13.10;99.90;;;;;;5095322;28;20036;-70
2022/09/11 03:21:33;;;;;;;15.00;11.30;;;13.10;99.90;;;;;;5094953;28;20554;-70
2022/09/11 03:23:59;;;;;;;16.13;11.98;;;13.10;99.90;;;;;;5094823;28;20043;-69
2022/09/11 03:26:26;;;;;;;14.57;11.75;;;13.10;99.90;;;;;;5095356;28;20118;-70
2022/09/11 03:28:53;;;;;;;11.90;8.70;;;13.00;99.90;;;;;;5095644;28;20036;-70
2022/09/11 03:31:19;;;;;;;9.50;7.18;;;13.00;99.90;;;;;;5112449;27;20040;-70
2022/09/11 03:33:44;;;;;;;10.38;7.20;;;13.10;99.90;;;;;;5110772;28;20044;-69
2022/09/11 03:36:11;;;;;;;10.70;7.55;;;13.00;99.90;;;;;;5095258;28;20078;-70
2022/09/11 03:38:37;;;;;;;12.23;9.13;;;13.00;99.90;;;;;;5128067;27;20032;-69
2022/09/11 03:41:02;;;;;;;12.40;9.60;;;12.90;99.90;;;;;;5109767;27;20518;-70
2022/09/11 03:43:29;;;;;;;9.45;7.03;;;12.90;99.90;;;;;;5128486;27;20052;-70
2022/09/11 03:45:55;;;;;;;8.43;6.00;;;12.80;99.90;;;;;;5094816;28;20040;-69
2022/09/11 03:48:21;;;;;;;7.90;5.95;;;12.90;99.90;;;;;;5094326;28;20042;-69
2022/09/11 03:50:47;;;;;;;8.00;5.93;;;12.90;99.90;;;;;;5110478;28;20530;-69
2022/09/11 03:53:13;;;;;;;8.38;6.03;;;12.90;99.90;;;;;;5094202;28;20085;-69
2022/09/11 03:55:39;;;;;;;8.20;5.85;;;12.90;99.90;;;;;;5094704;28;20480;-69
2022/09/11 03:58:06;;;;;;;8.68;6.40;;;12.90;99.90;;;;;;5094116;28;20036;-70
2022/09/11 04:00:32;;;;;;;10.32;6.70;;;12.90;99.90;;;;;;5094503;28;20093;-70
2022/09/11 04:02:59;;;;;;;7.55;5.35;;;12.90;99.90;;;;;;5100095;28;20036;-70
2022/09/11 04:05:25;;;;;;;9.35;5.97;;;12.90;99.90;;;;;;5096396;27;20067;-70
2022/09/11 04:07:51;;;;;;;8.55;5.90;;;12.90;99.90;;;;;;5107256;28;20411;-69
2022/09/11 04:10:18;;;;;;;8.35;6.03;;;12.90;99.90;;;;;;5113934;28;20044;-70
2022/09/11 04:12:44;;;;;;;9.02;6.50;;;12.90;99.90;;;;;;5104627;28;20044;-70
2022/09/11 04:15:09;;;;;;;8.73;6.25;;;12.90;99.90;;;;;;5094157;28;20180;-70
2022/09/11 04:17:35;;;;;;;8.77;6.45;;;12.90;99.90;;;;;;5094481;28;20036;-69
2022/09/11 04:20:02;;;;;;;9.05;6.90;;;12.80;99.90;;;;;;5126924;27;20047;-69
2022/09/11 04:22:28;;;;;;;8.85;6.88;;;12.80;99.90;;;;;;5093399;28;20036;-69
2022/09/11 04:24:53;;;;;;;8.98;6.32;;;12.80;99.90;;;;;;5094165;28;20496;-70
2022/09/11 04:27:20;;;;;;;9.23;6.82;;;12.80;99.90;;;;;;5094196;28;20036;-69
2022/09/11 04:29:45;;;;;;;9.30;6.90;;;12.80;99.90;;;;;;5093441;28;20442;-69
2022/09/11 04:32:11;;;;;;;8.85;6.25;;;12.80;99.90;;;;;;5097724;27;20035;-70
2022/09/11 04:34:37;;;;;;;8.45;5.82;;;12.80;99.90;;;;;;5093185;28;20115;-69
2022/09/11 04:37:02;;;;;;;9.20;6.30;;;12.80;99.90;;;;;;5094111;28;20043;-69
2022/09/11 04:39:29;;;;;;;9.25;6.80;;;12.70;99.90;;;;;;5109526;28;20445;-70
2022/09/11 04:41:56;;;;;;;9.00;6.65;;;12.70;99.90;;;;;;5113005;28;20044;-69
2022/09/11 04:44:22;;;;;;;8.50;6.03;;;12.70;99.90;;;;;;5113892;28;20463;-69
2022/09/11 04:46:48;;;;;;;9.77;6.63;;;12.70;99.90;;;;;;5114337;28;20035;-69
2022/09/11 04:49:14;;;;;;;9.80;6.82;;;12.70;99.90;;;;;;5113036;28;20399;-69
2022/09/11 04:51:41;;;;;;;16.83;8.30;;;12.60;99.90;;;;;;5114147;28;20487;-69
2022/09/11 04:54:09;;;;;;;10.23;6.80;;;12.60;99.90;;;;;;5126355;27;20032;-69
2022/09/11 04:56:39;;;;;;;12.27;7.63;;;12.60;99.90;;;;;;5093696;28;20036;-69
2022/09/11 04:59:14;;;;;;;10.05;7.63;;;12.70;99.90;;;;;;5093531;28;20040;-69
2022/09/11 05:01:41;;;;;;;10.38;7.25;;;12.70;99.90;;;;;;5096663;28;20050;-69
2022/09/11 05:04:07;;;;;;;10.57;7.45;;;12.80;99.90;;;;;;5101396;28;20444;-69
2022/09/11 05:06:33;;;;;;;11.23;7.70;;;12.80;99.90;;;;;;5113998;28;20074;-69
2022/09/11 05:09:04;;;;;;;11.00;7.38;;;12.80;99.90;;;;;;5112862;28;20059;-70
2022/09/11 05:11:30;;;;;;;11.57;8.00;;;12.80;99.90;;;;;;5111498;28;20044;-69
2022/09/11 05:13:58;;;;;;;11.02;8.20;;;12.70;99.90;;;;;;5112412;27;20445;-69
2022/09/11 05:16:29;;;;;;;13.68;11.13;;;12.60;99.90;;;;;;5112499;28;20036;-69
2022/09/11 05:18:55;;;;;;;14.40;11.07;;;12.60;99.90;;;;;;5111886;28;20377;-70
2022/09/11 05:21:23;;;;;;;13.73;10.95;;;12.60;99.90;;;;;;5094999;28;20032;-69
2022/09/11 05:23:51;;;;;;;13.88;11.15;;;12.60;99.90;;;;;;5108938;28;20035;-69
2022/09/11 05:26:19;;;;;;;13.43;10.43;;;12.60;99.90;;;;;;5113840;28;20118;-69
2022/09/11 05:28:45;;;;;;;13.98;10.57;;;12.70;99.90;;;;;;5108423;28;20032;-70
2022/09/11 05:31:16;;;;;;;13.25;9.50;;;12.70;99.90;;;;;;5109408;28;20097;-69
2022/09/11 05:33:45;;;;;;;13.18;9.43;;;12.70;99.90;;;;;;5111269;28;20035;-69
2022/09/11 05:36:12;;;;;;;13.05;9.15;;;12.70;99.90;;;;;;5095212;28;20042;-69
2022/09/11 05:38:38;;;;;;;14.02;9.70;;;12.80;99.90;;;;;;5108221;28;20031;-70
2022/09/11 05:41:05;;;;;;;12.38;9.20;;;12.80;99.90;;;;;;5094429;28;20805;-70
2022/09/11 05:43:32;;;;;;;13.20;9.18;;;12.70;99.90;;;;;;5097869;28;20051;-70
2022/09/11 05:45:59;;;;;;;11.95;9.00;;;12.70;99.90;;;;;;5100619;28;20039;-70
2022/09/11 05:48:27;;;;;;;12.82;9.15;;;12.70;99.90;;;;;;5105016;28;20539;-70
2022/09/11 05:51:06;;;;;;;11.18;7.78;;;12.70;99.90;;;;;;5107038;28;20036;-70
2022/09/11 05:53:32;;;;;;;11.10;7.38;;;12.70;99.90;;;;;;5100671;28;20062;-70
2022/09/11 05:56:08;;;;;;;10.38;6.68;;;12.70;99.90;;;;;;5102931;28;20508;-70
2022/09/11 05:58:34;;;;;;;9.48;6.20;;;12.80;99.90;;;;;;5135837;27;20036;-70
2022/09/11 06:01:10;;;;;;;10.65;6.75;;;12.80;99.90;;;;;;5118153;27;20055;-69
2022/09/11 06:03:36;;;;;;;12.00;7.40;;;12.80;99.90;;;;;;5097008;27;20075;-70
2022/09/11 06:06:05;;;;;;;10.30;7.07;;;12.80;99.90;;;;;;5092122;28;20072;-69
2022/09/11 06:08:33;;;;;;;10.43;7.60;;;12.80;99.90;;;;;;5054872;28;20044;-70
2022/09/11 06:11:00;;;;;;;11.32;8.00;;;12.80;99.90;;;;;;5092164;27;20044;-70
2022/09/11 06:13:29;;;;;;;12.63;8.48;;;12.90;99.90;;;;;;5091661;27;20047;-70
2022/09/11 06:15:55;;;;;;;11.68;8.25;;;12.90;99.90;;;;;;5073670;28;20052;-70
2022/09/11 06:18:21;;;;;;;12.38;8.70;;;12.90;99.90;;;;;;5062283;28;20036;-70
2022/09/11 06:21:05;;;;;;;10.45;7.88;;;12.90;99.90;;;;;;5062517;28;20066;-70
2022/09/11 06:23:32;;;;;;;10.23;7.80;;;12.90;99.90;;;;;;5052288;28;20044;-70
2022/09/11 06:26:03;;;;;;;11.40;9.02;;;12.90;99.90;;;;;;5062328;28;20045;-70
2022/09/11 06:28:29;;;;;;;11.93;8.98;;;13.00;99.90;;;;;;5057490;28;20413;-70
2022/09/11 06:30:54;;;;;;;11.43;8.20;;;13.10;99.90;;;;;;5065241;28;20036;-70
2022/09/11 06:33:21;;;;;;;13.57;9.65;;;13.10;99.90;;;;;;5074682;28;20173;-70
2022/09/11 06:35:56;;;;;;;13.50;9.68;;;13.20;99.90;;;;;;5066682;28;20044;-70
2022/09/11 06:38:22;;;;;;;12.93;9.77;;;13.30;99.90;;;;;;5057808;28;20067;-70
2022/09/11 06:40:48;;;;;;;13.95;10.77;;;13.30;99.90;;;;;;5063005;28;20490;-70
2022/09/11 06:43:13;;;;;;;13.63;10.90;;;13.30;99.90;;;;;;5076732;28;20048;-70
2022/09/11 06:45:40;;;;;;;12.40;8.80;;;13.40;99.90;;;;;;5069791;28;20067;-70
2022/09/11 06:48:06;;;;;;;14.38;11.63;;;13.40;99.90;;;;;;5057960;28;20037;-70
2022/09/11 06:50:39;;;;;;;14.65;11.45;;;13.50;99.90;;;;;;5061082;28;20413;-70
2022/09/11 06:53:05;;;;;;;14.77;12.27;;;13.60;99.90;;;;;;5067029;28;20409;-70
2022/09/11 06:55:32;;;;;;;13.27;10.23;;;13.60;99.90;;;;;;5068792;28;20044;-70
2022/09/11 06:57:58;;;;;;;12.13;10.07;;;13.70;99.90;;;;;;5070747;28;20040;-70
2022/09/11 07:00:24;;;;;;;13.23;11.07;;;13.80;99.90;;;;;;5071195;28;20127;-70
2022/09/11 07:02:51;;;;;;;16.30;13.63;;;13.80;99.90;;;;;;5071983;28;20493;-77
2022/09/11 07:05:17;;;;;;;15.10;6.18;;;13.90;99.90;;;;;;5093297;27;20058;-75
2022/09/11 07:07:43;;;;;;;15.65;13.05;;;14.00;99.90;;;;;;5111716;27;20040;-70
2022/09/11 07:10:09;;;;;;;17.80;14.80;;;14.20;99.90;;;;;;5104924;28;20556;-70
2022/09/11 07:12:37;;;;;;;17.98;15.18;;;14.30;99.90;;;;;;5110437;28;20051;-70
2022/09/11 07:15:05;;;;;;;17.98;13.98;;;14.40;99.90;;;;;;5103365;28;20063;-70
2022/09/11 07:17:31;;;;;;;18.10;15.15;;;14.50;99.90;;;;;;5100488;28;20039;-70
2022/09/11 07:19:57;;;;;;;17.83;14.98;;;14.50;99.90;;;;;;5105649;28;20039;-70
2022/09/11 07:22:22;;;;;;;17.65;14.90;;;14.60;99.90;;;;;;5080591;28;20527;-70
2022/09/11 07:24:48;;;;;;;19.77;15.10;;;14.70;99.90;;;;;;5100954;27;20119;-70
2022/09/11 07:27:14;;;;;;;18.58;15.68;;;14.80;99.90;;;;;;5102494;27;20106;-70
2022/09/11 07:29:39;;;;;;;18.70;15.82;;;14.90;99.90;;;;;;5105096;28;20040;-70
2022/09/11 07:32:05;;;;;;;18.65;15.30;;;15.00;99.90;;;;;;5112203;28;20035;-70
2022/09/11 07:34:31;;;;;;;17.88;14.65;;;15.10;99.90;;;;;;5113469;28;20036;-70
2022/09/11 07:36:56;;;;;;;18.50;14.95;;;15.20;99.90;;;;;;5095285;28;20472;-70
2022/09/11 07:39:22;;;;;;;18.83;15.52;;;15.40;99.90;;;;;;5109075;28;20085;-70
2022/09/11 07:41:48;;;;;;;16.95;13.68;;;15.50;99.90;;;;;;5105273;28;20035;-70
2022/09/11 07:44:15;;;;;;;17.42;14.07;;;15.60;99.90;;;;;;5095008;28;20044;-70
2022/09/11 07:46:40;;;;;;;22.30;16.02;;;15.70;99.90;;;;;;5108293;28;20031;-70
2022/09/11 07:49:08;;;;;;;16.80;14.00;;;15.90;99.90;;;;;;5108090;28;20442;-70
2022/09/11 07:51:35;;;;;;;19.65;13.77;;;15.90;99.90;;;;;;5100391;28;20040;-70
2022/09/11 07:54:01;;;;;;;17.33;13.23;;;15.90;99.90;;;;;;5099901;27;20035;-70
2022/09/11 07:56:27;;;;;;;16.83;12.48;;;16.10;99.90;;;;;;5109731;28;20073;-70
2022/09/11 07:58:54;;;;;;;18.20;14.40;;;16.20;99.90;;;;;;5110795;28;20056;-70
2022/09/11 08:01:22;;;;;;;15.93;14.23;;;16.30;99.90;;;;;;5113554;28;20042;-70
2022/09/11 08:03:53;;;;;;;16.30;12.80;;;16.40;99.90;;;;;;5108770;28;20075;-69
2022/09/11 08:06:19;;;;;;;17.40;13.25;;;16.40;99.90;;;;;;5106923;28;20120;-70
2022/09/11 08:08:46;;;;;;;15.55;12.38;;;16.50;99.90;;;;;;5129687;27;20176;-70
2022/09/11 08:11:15;;;;;;;13.88;12.02;;;16.60;99.90;;;;;;5104568;28;20118;-70
2022/09/11 08:13:40;;;;;;;16.77;13.13;;;16.70;99.90;;;;;;5093824;28;20059;-70
2022/09/11 08:16:07;;;;;;;15.38;11.30;;;16.70;99.90;;;;;;5097118;28;20062;-70
2022/09/11 08:18:36;;;;;;;14.27;10.65;;;16.80;99.90;;;;;;5093702;28;20096;-77
2022/09/11 08:21:04;;;;;;;14.07;9.57;;;16.90;99.90;;;;;;5111302;28;20122;-76
2022/09/11 08:23:31;;;;;;;15.13;8.93;;;17.00;99.90;;;;;;5114690;28;20055;-76
2022/09/11 08:26:04;;;;;;;11.15;8.18;;;17.10;99.90;;;;;;5100873;27;20028;-76
2022/09/11 08:28:29;;;;;;;11.38;5.63;;;17.20;99.90;;;;;;5112873;28;20047;-76
2022/09/11 08:30:57;;;;;;;9.95;5.40;;;17.30;99.90;;;;;;5110472;28;20423;-77
2022/09/11 08:33:23;;;;;;;8.65;5.50;;;17.40;99.90;;;;;;5113887;28;20055;-76
2022/09/11 08:35:50;;;;;;;9.13;5.68;;;17.50;99.90;;;;;;5100982;28;20032;-69
2022/09/11 08:38:16;;;;;;;10.02;4.82;;;17.50;99.90;;;;;;5113100;28;20588;-69
2022/09/11 08:40:42;;;;;;;9.55;4.65;;;17.50;99.90;;;;;;5105487;28;20047;-69
2022/09/11 08:43:18;;;;;;;10.52;4.43;;;17.60;99.90;;;;;;5100250;28;20110;-69
2022/09/11 08:45:43;;;;;;;8.00;4.70;;;17.70;99.90;;;;;;5093220;28;20028;-70
2022/09/11 08:48:11;;;;;;;9.13;4.75;;;17.80;99.90;;;;;;5092384;28;20529;-69
2022/09/11 08:50:42;;;;;;;8.23;4.00;;;18.10;99.90;;;;;;5106166;28;20050;-69
2022/09/11 08:53:14;;;;;;;6.93;3.60;;;18.20;99.90;;;;;;5106018;28;20069;-70
2022/09/11 08:55:49;;;;;;;8.55;3.50;;;18.40;99.90;;;;;;5114161;28;20035;-69
2022/09/11 08:58:36;;;;;;;8.23;3.88;;;18.40;99.90;;;;;;5103045;28;20120;-69
2022/09/11 09:01:21;;;;;;;7.15;3.60;;;18.40;99.90;;;;;;5096331;28;20117;-70
2022/09/11 09:04:09;;;;;;;6.43;3.78;;;18.40;99.90;;;;;;5093960;28;20061;-69
2022/09/11 09:07:13;;;;;;;8.60;4.43;;;18.40;99.90;;;;;;5096444;28;20043;-70
2022/09/11 09:10:14;;;;;;;7.78;3.55;;;18.40;99.90;;;;;;5077774;28;20059;-70
2022/09/11 09:12:49;;;;;;;7.68;3.40;;;18.40;99.90;;;;;;5070088;28;20052;-69
2022/09/11 09:15:41;;;;;;;6.82;3.60;;;18.50;99.90;;;;;;5108519;28;20039;-70
2022/09/11 09:18:27;;;;;;;9.07;3.92;;;18.60;99.90;;;;;;5101239;28;20058;-69
2022/09/11 09:21:01;;;;;;;5.63;3.20;;;18.70;99.90;;;;;;5105933;28;20092;-70
2022/09/11 09:23:57;;;;;;;9.10;4.05;;;18.70;99.90;;;;;;5113633;28;20462;-70
2022/09/11 09:26:32;;;;;;;7.97;3.70;;;18.80;99.90;;;;;;5086828;28;20044;-70
2022/09/11 09:29:04;;;;;;;7.75;3.60;;;18.80;99.90;;;;;;5093357;28;20044;-70
2022/09/11 09:31:32;;;;;;;7.72;3.28;;;19.00;99.90;;;;;;5096619;28;20051;-70
2022/09/11 09:34:14;;;;;;;8.60;3.42;;;19.10;99.90;;;;;;5101903;28;20040;-70
2022/09/11 09:36:46;;;;;;;7.32;3.20;;;19.20;99.90;;;;;;5092328;28;20048;-70
2022/09/11 09:39:16;;;;;;;8.93;3.00;;;19.30;99.90;;;;;;5125671;28;20040;-70
2022/09/11 09:42:18;;;;;;;4.70;2.95;;;19.50;99.90;;;;;;5093105;28;20100;-71
2022/09/11 09:44:55;;;;;;;;;;;19.60;99.90;;;;;;5093468;28;20476;-71
2022/09/11 09:47:21;;;;;;;7.32;2.90;;;19.60;99.90;;;;;;5093182;28;19916;-71
2022/09/11 09:49:47;;;;;;;5.15;2.40;;;19.70;99.90;;;;;;5093057;28;20127;-71
2022/09/11 09:52:18;;;;;;;7.68;2.42;;;19.80;99.90;;;;;;5094454;28;20079;-71
2022/09/11 09:54:59;;;;;;;7.18;2.70;;;19.90;99.90;;;;;;5099702;28;20043;-71
2022/09/11 09:57:30;;;;;;;5.35;2.40;;;20.00;99.90;;;;;;5112078;28;20492;-71
2022/09/11 10:00:06;;;;;;;4.53;2.30;;;20.10;99.90;;;;;;5113455;28;20050;-71
2022/09/11 10:02:48;;;;;;;7.30;2.67;;;20.20;99.90;;;;;;5113243;28;20510;-71
2022/09/11 10:05:33;;;;;;;5.97;2.28;;;20.30;99.90;;;;;;5112154;28;20079;-71
2022/09/11 10:08:02;;;;;;;6.65;2.67;;;20.30;99.90;;;;;;5113393;28;20040;-71
2022/09/11 10:10:28;;;;;;;6.47;2.22;;;20.40;99.90;;;;;;5093766;28;20044;-71
2022/09/11 10:12:56;;;;;;;5.15;2.15;;;20.60;99.90;;;;;;5111333;28;20058;-71
2022/09/11 10:15:24;;;;;;;5.57;2.10;;;20.50;99.90;;;;;;5111910;28;20093;-70
2022/09/11 10:17:50;;;;;;;4.40;1.60;;;20.50;99.90;;;;;;5113206;28;20039;-71
2022/09/11 10:20:22;;;;;;;4.85;1.80;;;20.60;99.90;;;;;;5113363;28;20039;-71
2022/09/11 10:22:52;;;;;;;4.32;1.55;;;20.50;99.90;;;;;;5113199;28;20046;-71
2022/09/11 10:25:26;;;;;;;4.70;1.70;;;20.60;99.90;;;;;;5113221;28;20488;-71
2022/09/11 10:28:07;;;;;;;4.95;1.50;;;20.80;99.90;;;;;;5113009;28;20113;-71
2022/09/11 10:30:36;;;;;;;5.95;1.58;;;20.70;99.90;;;;;;5110540;28;20044;-71
2022/09/11 10:33:12;;;;;;;4.60;1.45;;;20.70;99.90;;;;;;5115311;28;20036;-71
2022/09/11 10:35:38;;;;;;;3.45;1.42;;;20.80;99.90;;;;;;5116837;28;20035;-71
2022/09/11 10:38:10;;;;;;;3.50;1.40;;;20.90;99.90;;;;;;5116571;28;20036;-71
2022/09/11 10:40:38;;;;;;;4.97;1.73;;;20.90;99.90;;;;;;5116536;27;20043;-71
2022/09/11 10:43:03;;;;;;;4.80;1.70;;;20.90;99.90;;;;;;5115662;28;20093;-70
2022/09/11 10:45:30;;;;;;;2.15;1.30;;;21.00;99.90;;;;;;5115271;28;20079;-71
2022/09/11 10:48:12;;;;;;;3.97;1.58;;;21.00;99.90;;;;;;5115417;28;20126;-71
2022/09/11 10:50:38;;;;;;;3.50;1.45;;;21.00;99.90;;;;;;5116431;28;20036;-71
2022/09/11 10:53:21;;;;;;;4.50;1.77;;;20.80;99.90;;;;;;5115034;28;20043;-71
2022/09/11 10:55:59;;;;;;;3.67;1.50;;;20.70;99.90;;;;;;5116598;28;20050;-71
2022/09/11 10:58:34;;;;;;;3.25;1.50;;;20.70;99.90;;;;;;5115258;28;20063;-71
2022/09/11 11:01:00;;;;;;;4.50;1.60;;;20.60;99.90;;;;;;5115273;28;20409;-71
2022/09/11 11:03:27;;;;;;;4.72;1.90;;;20.60;99.90;;;;;;5116137;28;20481;-71
2022/09/11 11:06:05;;;;;;;4.57;1.50;;;20.50;99.90;;;;;;5114725;28;20518;-71
2022/09/11 11:09:00;;;;;;;4.35;1.73;;;20.30;99.90;;;;;;5116216;28;20403;-71
2022/09/11 11:11:51;;;;;;;4.60;1.60;;;20.20;99.90;;;;;;5116033;27;20047;-71
2022/09/11 11:14:29;;;;;;;4.20;1.80;;;20.10;99.90;;;;;;5107716;28;20085;-71
2022/09/11 11:17:03;;;;;;;4.95;1.52;;;20.00;99.90;;;;;;5115775;28;20757;-71
2022/09/11 11:19:50;;;;;;;4.85;1.67;;;19.90;99.90;;;;;;5115831;28;20484;-71
2022/09/11 11:22:38;;;;;;;3.00;1.50;;;19.80;99.90;;;;;;5115818;28;20122;-71
2022/09/11 11:25:41;;;;;;;4.03;1.67;;;19.80;99.90;;;;;;5113694;28;20032;-71
2022/09/11 11:28:53;;;;;;;4.50;2.08;;;19.60;99.90;;;;;;5095323;28;20036;-70
2022/09/11 11:31:58;;;;;;;6.28;2.72;;;19.50;99.90;;;;;;5071690;28;20056;-70
2022/09/11 11:34:41;;;;;;;6.30;2.40;;;19.40;99.90;;;;;;5095286;28;20040;-71
2022/09/11 11:37:10;;;;;;;5.53;2.13;;;19.30;99.90;;;;;;5095249;28;20047;-70
2022/09/11 11:40:09;;;;;;;5.07;2.40;;;19.20;99.90;;;;;;5095243;28;20044;-71
2022/09/11 11:43:01;;;;;;;7.32;2.33;;;19.20;99.90;;;;;;5094776;28;20036;-70
2022/09/11 11:45:48;;;;;;;4.75;2.00;;;19.10;99.90;;;;;;5096577;28;20513;-71
2022/09/11 11:48:33;;;;;;;7.10;2.53;;;19.10;99.90;;;;;;5095013;28;20081;-71
2022/09/11 11:51:05;;;;;;;5.35;2.33;;;19.10;99.90;;;;;;5094833;28;20044;-70
2022/09/11 11:53:43;;;;;;;;;;;19.10;99.90;;;;;;5107065;28;20062;-70
2022/09/11 11:56:35;;;;;;;5.55;2.10;;;19.10;99.90;;;;;;5115147;28;20410;-70
2022/09/11 11:59:19;;;;;;;8.88;2.35;;;19.10;99.90;;;;;;5114923;28;20433;-70
2022/09/11 12:01:57;;;;;;;5.95;2.30;;;19.20;99.90;;;;;;5114975;28;20047;-70
2022/09/11 12:04:40;;;;;;;6.32;2.80;;;19.10;99.90;;;;;;5115051;28;20458;-71
2022/09/11 12:07:30;;;;;;;4.88;2.35;;;19.10;99.90;;;;;;5115059;28;20456;-70
2022/09/11 12:09:58;;;;;;;5.70;2.50;;;19.00;99.90;;;;;;5114823;28;20035;-71
2022/09/11 12:12:26;;;;;;;7.07;2.40;;;19.10;99.90;;;;;;5114842;28;20062;-71
2022/09/11 12:14:55;;;;;;;5.47;2.30;;;19.10;99.90;;;;;;5113470;28;20085;-70
2022/09/11 12:17:27;;;;;;;5.20;2.28;;;19.10;99.90;;;;;;5114846;28;20040;-71
2022/09/11 12:20:11;;;;;;;6.85;2.88;;;19.20;99.90;;;;;;5114619;28;20535;-71
2022/09/11 12:22:43;;;;;;;5.10;2.60;;;19.20;99.90;;;;;;5112290;28;20043;-71
2022/09/11 12:25:18;;;;;;;5.85;2.78;;;19.20;99.90;;;;;;5114834;28;20036;-70
2022/09/11 12:27:47;;;;;;;5.43;3.28;;;19.20;99.90;;;;;;5096746;28;20050;-70
2022/09/11 12:30:15;;;;;;;5.65;3.67;;;19.20;99.90;;;;;;5114472;28;20397;-70
2022/09/11 12:32:47;;;;;;;6.97;3.75;;;19.20;99.90;;;;;;5114480;28;20035;-70
2022/09/11 12:35:45;;;;;;;5.88;2.90;;;19.20;99.90;;;;;;5114428;28;20039;-71
2022/09/11 12:38:34;;;;;;;6.57;3.25;;;19.30;99.90;;;;;;5113017;28;20498;-71
2022/09/11 12:41:06;;;;;;;5.57;2.35;;;19.40;99.90;;;;;;5114355;28;20114;-71
2022/09/11 12:43:34;;;;;;;4.40;2.17;;;19.50;99.90;;;;;;5114226;28;20511;-71
2022/09/11 12:46:02;;;;;;;6.78;2.22;;;19.50;99.90;;;;;;5114196;28;20040;-71
2022/09/11 12:48:37;;;;;;;6.63;2.13;;;19.60;99.90;;;;;;5114211;28;20055;-71
2022/09/11 12:51:05;;;;;;;3.38;1.77;;;19.70;99.90;;;;;;5114103;28;20364;-71
2022/09/11 12:53:34;;;;;;;5.40;1.88;;;19.60;99.90;;;;;;5114063;28;20487;-71
2022/09/11 12:56:06;;;;;;;4.28;1.83;;;19.50;99.90;;;;;;5113442;28;20048;-71
2022/09/11 12:58:36;;;;;;;3.72;1.83;;;19.60;99.90;;;;;;5112732;28;20517;-71
2022/09/11 13:01:31;;;;;;;5.32;2.05;;;19.60;99.90;;;;;;5113002;28;20094;-71
2022/09/11 13:04:29;;;;;;;4.30;1.80;;;19.70;99.90;;;;;;5113903;28;20055;-70